John H. — WAC6768 — position and weather

sailwx.info

Track history (hours):
 
Tides and Currents Weather Stations Pressure Air Temp Water Temp Dewpoint Dewpoint Depression Visibility Wind Speed Wind Dir Waves Ship Positions

John H.

Owner: CROSS SOUND FERRY SERVICE INC, NEW LOUDON, CT. More information available from US FCC via Universal Licensing System and Coast Guard Vessel Documentation Center.

Last reported at 2015-Mar-03 14:33 UTC. Time now 2015-Mar-03 15:09 UTC.
Position N 41°17' W 072°06'.

Length 70 m.

Type: Passenger vessel. MMSI: 366934890.

Date/timePositionNaut miles runAvg speedWind from/ knotsBaromVisibWave heightAir tempDewpointWater temp
2015-Mar-03 14:33N 41°17' W 072°06'5 4.6
2015-Mar-03 13:34N 41°21' W 072°06'10 9.6
2015-Mar-03 12:34N 41°13' W 072°11'4 4.3
2015-Mar-03 11:33N 41°09' W 072°14'0 0.0
2015-Mar-03 01:34N 41°09' W 072°14'9 8.6
2015-Mar-03 00:33N 41°16' W 072°07'6 0.2
2015-Mar-02 01:33N 41°21' W 072°06'9 9.0
2015-Mar-02 00:33N 41°13' W 072°10'5 5.1
2015-Mar-01 23:33N 41°09' W 072°14'1211.6
2015-Mar-01 22:33N 41°19' W 072°05'3 2.8
2015-Mar-01 21:33N 41°21' W 072°06'10 9.6
2015-Mar-01 20:33N 41°13' W 072°11'4 4.3
2015-Mar-01 19:33N 41°09' W 072°14'8 8.2
2015-Mar-01 18:33N 41°16' W 072°08'6 5.8
2015-Mar-01 17:33N 41°21' W 072°06'9 8.7
2015-Mar-01 16:33N 41°13' W 072°10'5 5.3
2015-Mar-01 15:34N 41°09' W 072°14'1212.1
2015-Mar-01 14:33N 41°19' W 072°05'0 0.1
2015-Mar-01 13:33N 41°19' W 072°05'1212.3
2015-Mar-01 12:34N 41°09' W 072°14'0 0.3
2015-Mar-01 11:33N 41°09' W 072°14'0 0.0
2015-Mar-01 01:25N 41°09' W 072°14'8 9.1
2015-Mar-01 00:33N 41°15' W 072°08'6 6.2
2015-Feb-28 23:33N 41°21' W 072°06'8 8.2
2015-Feb-28 22:33N 41°14' W 072°10'6 5.7
2015-Feb-28 21:33N 41°09' W 072°14'9 8.7
2015-Feb-28 20:33N 41°16' W 072°07'5 5.5
2015-Feb-28 19:33N 41°21' W 072°06'8 8.5
2015-Feb-28 18:33N 41°13' W 072°10'6 5.5
2015-Feb-28 17:33N 41°09' W 072°14'9 8.6
2015-Feb-28 16:34N 41°16' W 072°07'6 5.5
2015-Feb-28 15:34N 41°21' W 072°06'1111.4
2015-Feb-28 14:33N 41°11' W 072°13'2 2.4
2015-Feb-28 13:34N 41°09' W 072°14'8 7.8
2015-Feb-28 12:33N 41°15' W 072°07'6 6.5
2015-Feb-28 11:33N 41°21' W 072°06'0 0.0
2015-Feb-28 01:24N 41°21' W 072°06'8 9.8
2015-Feb-28 00:33N 41°14' W 072°09'6 5.7
2015-Feb-27 23:33N 41°09' W 072°14'10 9.6
2015-Feb-27 22:33N 41°17' W 072°06'5 4.6
2015-Feb-27 21:33N 41°21' W 072°06'9 8.9
2015-Feb-27 20:33N 41°13' W 072°10'5 5.0
2015-Feb-27 19:33N 41°09' W 072°14'8 8.4
2015-Feb-27 18:33N 41°16' W 072°07'6 5.7
2015-Feb-27 17:33N 41°21' W 072°06'8 7.9
2015-Feb-27 16:34N 41°14' W 072°09'6 6.2
2015-Feb-27 15:33N 41°09' W 072°14'1110.9
2015-Feb-27 14:34N 41°18' W 072°05'2 1.9
2015-Feb-27 13:33N 41°20' W 072°05'1312.7
2015-Feb-27 12:33N 41°09' W 072°14'0 0.2
2015-Feb-27 11:34N 41°09' W 072°14'0 0.0
2015-Feb-27 01:33N 41°09' W 072°14'9 9.4
2015-Feb-27 00:33N 41°17' W 072°06'5 4.8
2015-Feb-26 23:33N 41°21' W 072°06'9 8.6
2015-Feb-26 22:33N 41°13' W 072°10'5 5.3
2015-Feb-26 21:33N 41°09' W 072°14'8 8.3
2015-Feb-26 20:34N 41°16' W 072°08'6 5.6
2015-Feb-26 19:34N 41°21' W 072°06'9 9.3
2015-Feb-26 18:33N 41°13' W 072°10'5 4.7
2015-Feb-26 17:33N 41°09' W 072°14'8 7.7
2015-Feb-26 16:34N 41°15' W 072°08'6 6.3
2015-Feb-26 15:33N 41°21' W 072°06'1211.5
2015-Feb-26 14:33N 41°11' W 072°13'2 2.3
2015-Feb-26 13:34N 41°09' W 072°14'9 8.6
2015-Feb-26 12:34N 41°16' W 072°07'6 5.5
2015-Feb-26 11:33N 41°21' W 072°06'0 0.0
2015-Feb-26 01:24N 41°21' W 072°06'8 9.3
2015-Feb-26 00:33N 41°14' W 072°09'6 6.4
2015-Feb-25 23:33N 41°09' W 072°14'8 8.2
2015-Feb-25 22:33N 41°16' W 072°08'6 5.9
2015-Feb-25 21:33N 41°21' W 072°06'8 8.4
2015-Feb-25 20:33N 41°14' W 072°10'6 5.6
2015-Feb-25 19:33N 41°09' W 072°14'8 8.4
2015-Feb-25 18:33N 41°16' W 072°07'6 5.8
2015-Feb-25 17:34N 41°21' W 072°06'9 8.5
2015-Feb-25 16:34N 41°13' W 072°09'5 5.4
2015-Feb-25 15:33N 41°09' W 072°14'1212.3
2015-Feb-25 14:34N 41°19' W 072°05'1 0.8
2015-Feb-25 13:33N 41°19' W 072°05'1211.8
2015-Feb-25 12:33N 41°09' W 072°14'0 0.0
2015-Feb-25 11:33N 41°09' W 072°14'0 0.0
2015-Feb-25 01:33N 41°09' W 072°14'8 8.3
2015-Feb-25 00:33N 41°16' W 072°07'6 5.8
2015-Feb-24 23:33N 41°21' W 072°06'8 8.2
2015-Feb-24 22:33N 41°14' W 072°09'6 5.8
2015-Feb-24 21:33N 41°09' W 072°14'9 8.9
2015-Feb-24 20:34N 41°16' W 072°07'5 5.2
2015-Feb-24 19:33N 41°21' W 072°06'9 8.6
2015-Feb-24 18:34N 41°13' W 072°10'5 5.3
2015-Feb-24 17:33N 41°09' W 072°14'8 8.3
2015-Feb-24 16:34N 41°16' W 072°08'6 5.7
2015-Feb-24 15:33N 41°21' W 072°05'1211.5
2015-Feb-24 14:33N 41°11' W 072°13'2 2.3
2015-Feb-24 13:34N 41°09' W 072°14'14 1.1
2015-Feb-24 01:27N 41°21' W 072°06'8 9.4
2015-Feb-24 00:34N 41°13' W 072°09'6 5.8
2015-Feb-23 23:33N 41°09' W 072°14'8 8.1
2015-Feb-23 22:33N 41°16' W 072°08'6 6.0
2015-Feb-23 21:34N 41°21' W 072°06'9 8.9
2015-Feb-23 20:34N 41°13' W 072°09'5 5.3
2015-Feb-23 19:33N 41°09' W 072°14'8 7.9
2015-Feb-23 18:34N 41°15' W 072°08'6 6.2
2015-Feb-23 17:33N 41°21' W 072°06'9 8.6
2015-Feb-23 16:33N 41°13' W 072°10'5 5.3
2015-Feb-23 15:34N 41°09' W 072°14'1111.1
2015-Feb-23 14:33N 41°18' W 072°05'1 1.1
2015-Feb-23 13:33N 41°19' W 072°05'1212.2
2015-Feb-23 12:33N 41°09' W 072°14'0 0.3
2015-Feb-23 11:33N 41°09' W 072°14'0 0.0
2015-Feb-23 02:33N 41°09' W 072°14'8 7.6
2015-Feb-23 01:34N 41°15' W 072°08'6 6.5
2015-Feb-23 00:33N 41°21' W 072°06'8 8.1
2015-Feb-22 23:33N 41°14' W 072°09'6 6.0
2015-Feb-22 22:33N 41°09' W 072°14'9 9.5
2015-Feb-22 21:34N 41°17' W 072°06'5 4.8
2015-Feb-22 20:34N 41°21' W 072°06'8 8.3
2015-Feb-22 19:34N 41°14' W 072°10'6 5.7
2015-Feb-22 18:33N 41°09' W 072°14'8 8.2
2015-Feb-22 17:34N 41°16' W 072°08'6 6.0
2015-Feb-22 16:34N 41°21' W 072°06'0 0.0
2015-Feb-22 01:23N 41°21' W 072°06'910.5
2015-Feb-22 00:34N 41°13' W 072°10'5 5.2
2015-Feb-21 23:34N 41°09' W 072°14'9 8.9
2015-Feb-21 22:34N 41°16' W 072°07'5 5.2
2015-Feb-21 21:33N 41°21' W 072°06'8 8.0
2015-Feb-21 20:33N 41°14' W 072°09'6 6.0
2015-Feb-21 19:34N 41°09' W 072°14'1111.3
2015-Feb-21 18:33N 41°18' W 072°05'3 3.2
2015-Feb-21 17:33N 41°21' W 072°06'9 8.6
2015-Feb-21 16:33N 41°13' W 072°10'4 3.9
2015-Feb-21 15:34N 41°11' W 072°14'1212.5
2015-Feb-21 14:34N 41°21' W 072°05'  
Track history (hours):
 
Tides and Currents Weather Stations Pressure Air Temp Water Temp Dewpoint Dewpoint Depression Visibility Wind Speed Wind Dir Waves Ship Positions

John H.

Owner: CROSS SOUND FERRY SERVICE INC, NEW LOUDON, CT. More information available from US FCC via Universal Licensing System and Coast Guard Vessel Documentation Center.

Last reported at 2015-Mar-03 14:33 UTC. Time now 2015-Mar-03 15:09 UTC.
Position N 41°17' W 072°06'.

Length 70 m.

Type: Passenger vessel. MMSI: 366934890.

Date/timePositionNaut miles runAvg speedWind from/ knotsBaromVisibWave heightAir tempDewpointWater temp
2015-Mar-03 14:33N 41°17' W 072°06'5 4.6
2015-Mar-03 13:34N 41°21' W 072°06'10 9.6
2015-Mar-03 12:34N 41°13' W 072°11'4 4.3
2015-Mar-03 11:33N 41°09' W 072°14'0 0.0
2015-Mar-03 01:34N 41°09' W 072°14'9 8.6
2015-Mar-03 00:33N 41°16' W 072°07'6 0.2
2015-Mar-02 01:33N 41°21' W 072°06'9 9.0
2015-Mar-02 00:33N 41°13' W 072°10'5 5.1
2015-Mar-01 23:33N 41°09' W 072°14'1211.6
2015-Mar-01 22:33N 41°19' W 072°05'3 2.8
2015-Mar-01 21:33N 41°21' W 072°06'10 9.6
2015-Mar-01 20:33N 41°13' W 072°11'4 4.3
2015-Mar-01 19:33N 41°09' W 072°14'8 8.2
2015-Mar-01 18:33N 41°16' W 072°08'6 5.8
2015-Mar-01 17:33N 41°21' W 072°06'9 8.7
2015-Mar-01 16:33N 41°13' W 072°10'5 5.3
2015-Mar-01 15:34N 41°09' W 072°14'1212.1
2015-Mar-01 14:33N 41°19' W 072°05'0 0.1
2015-Mar-01 13:33N 41°19' W 072°05'1212.3
2015-Mar-01 12:34N 41°09' W 072°14'0 0.3
2015-Mar-01 11:33N 41°09' W 072°14'0 0.0
2015-Mar-01 01:25N 41°09' W 072°14'8 9.1
2015-Mar-01 00:33N 41°15' W 072°08'6 6.2
2015-Feb-28 23:33N 41°21' W 072°06'8 8.2
2015-Feb-28 22:33N 41°14' W 072°10'6 5.7
2015-Feb-28 21:33N 41°09' W 072°14'9 8.7
2015-Feb-28 20:33N 41°16' W 072°07'5 5.5
2015-Feb-28 19:33N 41°21' W 072°06'8 8.5
2015-Feb-28 18:33N 41°13' W 072°10'6 5.5
2015-Feb-28 17:33N 41°09' W 072°14'9 8.6
2015-Feb-28 16:34N 41°16' W 072°07'6 5.5
2015-Feb-28 15:34N 41°21' W 072°06'1111.4
2015-Feb-28 14:33N 41°11' W 072°13'2 2.4
2015-Feb-28 13:34N 41°09' W 072°14'8 7.8
2015-Feb-28 12:33N 41°15' W 072°07'6 6.5
2015-Feb-28 11:33N 41°21' W 072°06'0 0.0
2015-Feb-28 01:24N 41°21' W 072°06'8 9.8
2015-Feb-28 00:33N 41°14' W 072°09'6 5.7
2015-Feb-27 23:33N 41°09' W 072°14'10 9.6
2015-Feb-27 22:33N 41°17' W 072°06'5 4.6
2015-Feb-27 21:33N 41°21' W 072°06'9 8.9
2015-Feb-27 20:33N 41°13' W 072°10'5 5.0
2015-Feb-27 19:33N 41°09' W 072°14'8 8.4
2015-Feb-27 18:33N 41°16' W 072°07'6 5.7
2015-Feb-27 17:33N 41°21' W 072°06'8 7.9
2015-Feb-27 16:34N 41°14' W 072°09'6 6.2
2015-Feb-27 15:33N 41°09' W 072°14'1110.9
2015-Feb-27 14:34N 41°18' W 072°05'2 1.9
2015-Feb-27 13:33N 41°20' W 072°05'1312.7
2015-Feb-27 12:33N 41°09' W 072°14'0 0.2
2015-Feb-27 11:34N 41°09' W 072°14'0 0.0
2015-Feb-27 01:33N 41°09' W 072°14'9 9.4
2015-Feb-27 00:33N 41°17' W 072°06'5 4.8
2015-Feb-26 23:33N 41°21' W 072°06'9 8.6
2015-Feb-26 22:33N 41°13' W 072°10'5 5.3
2015-Feb-26 21:33N 41°09' W 072°14'8 8.3
2015-Feb-26 20:34N 41°16' W 072°08'6 5.6
2015-Feb-26 19:34N 41°21' W 072°06'9 9.3
2015-Feb-26 18:33N 41°13' W 072°10'5 4.7
2015-Feb-26 17:33N 41°09' W 072°14'8 7.7
2015-Feb-26 16:34N 41°15' W 072°08'6 6.3
2015-Feb-26 15:33N 41°21' W 072°06'1211.5
2015-Feb-26 14:33N 41°11' W 072°13'2 2.3
2015-Feb-26 13:34N 41°09' W 072°14'9 8.6
2015-Feb-26 12:34N 41°16' W 072°07'6 5.5
2015-Feb-26 11:33N 41°21' W 072°06'0 0.0
2015-Feb-26 01:24N 41°21' W 072°06'8 9.3
2015-Feb-26 00:33N 41°14' W 072°09'6 6.4
2015-Feb-25 23:33N 41°09' W 072°14'8 8.2
2015-Feb-25 22:33N 41°16' W 072°08'6 5.9
2015-Feb-25 21:33N 41°21' W 072°06'8 8.4
2015-Feb-25 20:33N 41°14' W 072°10'6 5.6
2015-Feb-25 19:33N 41°09' W 072°14'8 8.4
2015-Feb-25 18:33N 41°16' W 072°07'6 5.8
2015-Feb-25 17:34N 41°21' W 072°06'9 8.5
2015-Feb-25 16:34N 41°13' W 072°09'5 5.4
2015-Feb-25 15:33N 41°09' W 072°14'1212.3
2015-Feb-25 14:34N 41°19' W 072°05'1 0.8
2015-Feb-25 13:33N 41°19' W 072°05'1211.8
2015-Feb-25 12:33N 41°09' W 072°14'0 0.0
2015-Feb-25 11:33N 41°09' W 072°14'0 0.0
2015-Feb-25 01:33N 41°09' W 072°14'8 8.3
2015-Feb-25 00:33N 41°16' W 072°07'6 5.8
2015-Feb-24 23:33N 41°21' W 072°06'8 8.2
2015-Feb-24 22:33N 41°14' W 072°09'6 5.8
2015-Feb-24 21:33N 41°09' W 072°14'9 8.9
2015-Feb-24 20:34N 41°16' W 072°07'5 5.2
2015-Feb-24 19:33N 41°21' W 072°06'9 8.6
2015-Feb-24 18:34N 41°13' W 072°10'5 5.3
2015-Feb-24 17:33N 41°09' W 072°14'8 8.3
2015-Feb-24 16:34N 41°16' W 072°08'6 5.7
2015-Feb-24 15:33N 41°21' W 072°05'1211.5
2015-Feb-24 14:33N 41°11' W 072°13'2 2.3
2015-Feb-24 13:34N 41°09' W 072°14'14 1.1
2015-Feb-24 01:27N 41°21' W 072°06'8 9.4
2015-Feb-24 00:34N 41°13' W 072°09'6 5.8
2015-Feb-23 23:33N 41°09' W 072°14'8 8.1
2015-Feb-23 22:33N 41°16' W 072°08'6 6.0
2015-Feb-23 21:34N 41°21' W 072°06'9 8.9
2015-Feb-23 20:34N 41°13' W 072°09'5 5.3
2015-Feb-23 19:33N 41°09' W 072°14'8 7.9
2015-Feb-23 18:34N 41°15' W 072°08'6 6.2
2015-Feb-23 17:33N 41°21' W 072°06'9 8.6
2015-Feb-23 16:33N 41°13' W 072°10'5 5.3
2015-Feb-23 15:34N 41°09' W 072°14'1111.1
2015-Feb-23 14:33N 41°18' W 072°05'1 1.1
2015-Feb-23 13:33N 41°19' W 072°05'1212.2
2015-Feb-23 12:33N 41°09' W 072°14'0 0.3
2015-Feb-23 11:33N 41°09' W 072°14'0 0.0
2015-Feb-23 02:33N 41°09' W 072°14'8 7.6
2015-Feb-23 01:34N 41°15' W 072°08'6 6.5
2015-Feb-23 00:33N 41°21' W 072°06'8 8.1
2015-Feb-22 23:33N 41°14' W 072°09'6 6.0
2015-Feb-22 22:33N 41°09' W 072°14'9 9.5
2015-Feb-22 21:34N 41°17' W 072°06'5 4.8
2015-Feb-22 20:34N 41°21' W 072°06'8 8.3
2015-Feb-22 19:34N 41°14' W 072°10'6 5.7
2015-Feb-22 18:33N 41°09' W 072°14'8 8.2
2015-Feb-22 17:34N 41°16' W 072°08'6 6.0
2015-Feb-22 16:34N 41°21' W 072°06'0 0.0
2015-Feb-22 01:23N 41°21' W 072°06'910.5
2015-Feb-22 00:34N 41°13' W 072°10'5 5.2
2015-Feb-21 23:34N 41°09' W 072°14'9 8.9
2015-Feb-21 22:34N 41°16' W 072°07'5 5.2
2015-Feb-21 21:33N 41°21' W 072°06'8 8.0
2015-Feb-21 20:33N 41°14' W 072°09'6 6.0
2015-Feb-21 19:34N 41°09' W 072°14'1111.3
2015-Feb-21 18:33N 41°18' W 072°05'3 3.2
2015-Feb-21 17:33N 41°21' W 072°06'9 8.6
2015-Feb-21 16:33N 41°13' W 072°10'4 3.9
2015-Feb-21 15:34N 41°11' W 072°14'1212.5
2015-Feb-21 14:34N 41°21' W 072°05'  

Dump ship's entire track history